Anderson, Texas
Current Conditions -  °F | °C
As of 4:53 PM on Thursday 27 Nov 2014 (Local Time) from KCLL Reporting Station
Clear Clear  
Wind Chill: 62°   Ceiling: Unl
Heat Index: 62°   Visibility: 10mi
Dew Point: 28°   Wind: 3mph
Humidity: 28%   Direction: 60°ENE
Pressure: 30.41"   Gusts: NA
Location:  30.49°N, 95.99°W
Report Text: KCLL 272253Z 06003KT 10SM CLR 17/M02 A3041 RMK AO2 SLP297 T01671022
Loading
Personal Weather Stations






























Interactive Weather Map New forecast layout! Learn more

10-Day Weather Forecast

Advertisements
Track Severe Weather on mobile